createdAt,value
2023-08-04T00:01:17.643Z,10.85
2023-08-04T00:03:46.235Z,15.40
2023-08-04T00:06:13.602Z,9.45
2023-08-04T00:08:41.120Z,9.85
2023-08-04T00:11:08.410Z,11.23
2023-08-04T00:13:35.799Z,14.68
2023-08-04T00:16:10.557Z,10.25
2023-08-04T00:18:38.175Z,10.55
2023-08-04T00:21:06.142Z,13.27
2023-08-04T00:23:33.459Z,11.35
2023-08-04T00:26:00.907Z,10.00
2023-08-04T00:28:28.792Z,11.30
2023-08-04T00:30:56.207Z,9.82
2023-08-04T00:33:24.218Z,12.18
2023-08-04T00:35:51.389Z,10.98
2023-08-04T00:38:18.661Z,12.85
2023-08-04T00:40:45.943Z,14.98
2023-08-04T00:43:13.626Z,14.98
2023-08-04T00:45:41.211Z,15.23
2023-08-04T00:48:09.984Z,16.95
2023-08-04T00:50:37.559Z,10.73
2023-08-04T00:53:05.407Z,9.57
2023-08-04T00:55:35.861Z,13.23
2023-08-04T00:58:03.105Z,10.98
2023-08-04T01:00:30.563Z,9.27
2023-08-04T01:02:57.936Z,12.82
2023-08-04T01:05:37.975Z,12.05
2023-08-04T01:08:20.150Z,11.85
2023-08-04T01:10:59.706Z,11.20
2023-08-04T01:13:30.722Z,11.30
2023-08-04T01:16:00.033Z,11.90
2023-08-04T01:18:27.314Z,10.27
2023-08-04T01:20:54.487Z,12.75
2023-08-04T01:23:22.008Z,16.05
2023-08-04T01:25:49.880Z,15.10
2023-08-04T01:28:18.107Z,13.68
2023-08-04T01:30:48.431Z,16.33
2023-08-04T01:33:16.643Z,11.35
2023-08-04T01:35:44.417Z,16.58
2023-08-04T01:38:12.136Z,13.43
2023-08-04T01:40:40.548Z,12.15
2023-08-04T01:43:08.320Z,15.73
2023-08-04T01:45:35.633Z,20.08
2023-08-04T01:48:03.793Z,15.52
2023-08-04T01:50:31.048Z,14.00
2023-08-04T01:52:59.994Z,25.13
2023-08-04T01:55:27.244Z,61.10
2023-08-04T01:57:54.458Z,57.40
2023-08-04T02:00:21.800Z,15.10
2023-08-04T02:02:48.980Z,20.45
2023-08-04T02:05:16.607Z,19.55
2023-08-04T02:07:43.936Z,47.65
2023-08-04T02:10:11.429Z,66.65
2023-08-04T02:12:38.966Z,55.55
2023-08-04T02:15:07.360Z,69.68
2023-08-04T02:17:36.582Z,103.78
2023-08-04T02:20:06.717Z,73.10
2023-08-04T02:22:33.922Z,81.47
2023-08-04T02:25:01.360Z,80.22
2023-08-04T02:27:31.160Z,85.70
2023-08-04T02:29:58.337Z,107.90
2023-08-04T02:32:25.905Z,93.40
2023-08-04T02:34:53.346Z,125.03
2023-08-04T02:37:22.752Z,103.35
2023-08-04T02:39:50.010Z,113.65
2023-08-04T02:42:17.358Z,71.13
2023-08-04T02:44:44.729Z,63.67
2023-08-04T02:47:12.193Z,69.47
2023-08-04T02:49:40.943Z,59.72
2023-08-04T02:52:15.593Z,77.80
2023-08-04T02:54:46.318Z,60.65
2023-08-04T02:57:13.711Z,67.53
2023-08-04T02:59:41.066Z,65.82
2023-08-04T03:02:08.788Z,49.95
2023-08-04T03:04:36.369Z,70.88
2023-08-04T03:07:03.737Z,61.20
2023-08-04T03:09:30.970Z,49.20
2023-08-04T03:11:58.588Z,45.95
2023-08-04T03:14:26.016Z,46.28
2023-08-04T03:16:53.311Z,61.20
2023-08-04T03:19:20.530Z,58.58
2023-08-04T03:21:48.092Z,42.35
2023-08-04T03:24:16.006Z,52.45
2023-08-04T03:26:43.588Z,60.58
2023-08-04T03:29:11.246Z,52.17
2023-08-04T03:31:38.802Z,63.15
2023-08-04T03:34:06.059Z,49.75
2023-08-04T03:36:33.346Z,58.35
2023-08-04T03:39:01.303Z,46.63
2023-08-04T03:41:28.701Z,39.65
2023-08-04T03:43:56.887Z,42.90
2023-08-04T03:46:24.601Z,58.88
2023-08-04T03:48:52.725Z,60.55
2023-08-04T03:51:21.335Z,64.30
2023-08-04T03:53:49.013Z,63.58
2023-08-04T03:56:16.256Z,60.75
2023-08-04T03:58:43.434Z,65.22
2023-08-04T04:01:11.133Z,49.65
2023-08-04T04:03:38.941Z,55.83
2023-08-04T04:06:06.337Z,45.38
2023-08-04T04:08:33.695Z,45.40
2023-08-04T04:11:01.231Z,33.13
2023-08-04T04:13:28.811Z,42.15
2023-08-04T04:15:57.357Z,36.83
2023-08-04T04:18:24.770Z,33.92
2023-08-04T04:20:52.080Z,32.47
2023-08-04T04:23:19.472Z,31.50
2023-08-04T04:25:46.896Z,30.40
2023-08-04T04:28:14.711Z,29.80
2023-08-04T04:30:42.200Z,29.42
2023-08-04T04:33:10.653Z,33.55
2023-08-04T04:35:38.252Z,42.00
2023-08-04T04:38:05.462Z,37.97
2023-08-04T04:40:33.170Z,36.42
2023-08-04T04:43:00.692Z,26.15
2023-08-04T04:45:28.125Z,42.35
2023-08-04T04:47:57.158Z,36.35
2023-08-04T04:50:24.731Z,36.17
2023-08-04T04:52:53.364Z,38.30
2023-08-04T04:55:20.696Z,38.15
2023-08-04T04:57:47.951Z,30.92
2023-08-04T05:00:15.531Z,34.42
2023-08-04T05:02:42.813Z,31.20
2023-08-04T05:05:10.808Z,34.15
2023-08-04T05:07:38.207Z,27.75
2023-08-04T05:10:06.242Z,25.42
2023-08-04T05:12:33.506Z,22.92
2023-08-04T05:15:00.963Z,29.15
2023-08-04T05:17:28.202Z,26.77
2023-08-04T05:19:55.451Z,28.80
2023-08-04T05:22:23.149Z,24.25
2023-08-04T05:24:57.687Z,20.83
2023-08-04T05:27:32.956Z,23.63
2023-08-04T05:30:01.698Z,22.48
2023-08-04T05:32:37.062Z,17.75
2023-08-04T05:35:07.153Z,15.43
2023-08-04T05:37:35.039Z,12.57
2023-08-04T05:40:05.894Z,12.90
2023-08-04T05:42:33.298Z,14.02
2023-08-04T05:45:00.709Z,11.30
2023-08-04T05:47:29.144Z,12.80
2023-08-04T05:49:56.806Z,14.73
2023-08-04T05:52:24.053Z,14.05
2023-08-04T05:54:54.343Z,12.05
2023-08-04T05:57:21.522Z,10.48
2023-08-04T05:59:48.924Z,14.50
2023-08-04T06:02:18.184Z,16.85
2023-08-04T06:04:45.850Z,13.85
2023-08-04T06:07:13.196Z,20.05
2023-08-04T06:09:40.620Z,23.55
2023-08-04T06:12:08.748Z,26.17
2023-08-04T06:14:36.018Z,28.75
2023-08-04T06:17:03.365Z,21.27
2023-08-04T06:19:30.800Z,18.02
2023-08-04T06:21:58.066Z,18.05
2023-08-04T06:24:29.218Z,24.67
2023-08-04T06:26:56.461Z,19.35
2023-08-04T06:29:23.708Z,16.20
2023-08-04T06:31:53.067Z,33.78
2023-08-04T06:34:20.950Z,15.65
2023-08-04T06:36:48.974Z,20.27
2023-08-04T06:39:17.294Z,23.75
2023-08-04T06:41:46.104Z,16.88
2023-08-04T06:44:15.053Z,17.85
2023-08-04T06:46:43.029Z,17.63
2023-08-04T06:49:10.491Z,15.38
2023-08-04T06:51:38.121Z,19.48
2023-08-04T06:54:05.487Z,18.83
2023-08-04T06:56:34.093Z,14.07
2023-08-04T06:59:01.415Z,13.30
2023-08-04T07:01:28.840Z,20.27
2023-08-04T07:03:56.100Z,13.43
2023-08-04T07:06:24.810Z,12.35
2023-08-04T07:08:52.163Z,11.43
2023-08-04T07:11:19.552Z,9.18
2023-08-04T07:13:46.824Z,11.35
2023-08-04T07:16:14.621Z,11.80
2023-08-04T07:18:42.063Z,10.65
2023-08-04T07:21:11.394Z,10.18
2023-08-04T07:23:39.743Z,11.82
2023-08-04T07:26:08.790Z,9.93
2023-08-04T07:28:37.760Z,16.70
2023-08-04T07:31:10.817Z,14.98
2023-08-04T07:33:38.967Z,15.77
2023-08-04T07:36:06.338Z,11.43
2023-08-04T07:38:34.003Z,9.68
2023-08-04T07:41:01.609Z,13.25
2023-08-04T07:43:28.821Z,19.75
2023-08-04T07:45:56.166Z,13.65
2023-08-04T07:48:23.782Z,11.13
2023-08-04T07:50:52.653Z,17.75
2023-08-04T07:53:20.478Z,17.17
2023-08-04T07:55:58.365Z,20.75
2023-08-04T07:58:26.493Z,19.45
2023-08-04T08:00:54.066Z,15.40
2023-08-04T08:03:21.968Z,14.98
2023-08-04T08:05:49.472Z,13.50
2023-08-04T08:08:19.752Z,15.85
2023-08-04T08:10:47.113Z,13.50
2023-08-04T08:13:14.428Z,11.27
2023-08-04T08:15:41.869Z,15.13
2023-08-04T08:18:09.888Z,13.32
2023-08-04T08:20:41.820Z,13.73
2023-08-04T08:23:10.460Z,18.15
2023-08-04T08:25:38.374Z,12.50
2023-08-04T08:28:05.875Z,14.15
2023-08-04T08:30:33.580Z,11.88
2023-08-04T08:33:01.839Z,12.60
2023-08-04T08:35:29.233Z,11.23
2023-08-04T08:37:57.744Z,13.93
2023-08-04T08:40:27.811Z,10.40
2023-08-04T08:42:58.656Z,13.18
2023-08-04T08:45:30.205Z,9.45
2023-08-04T08:47:58.273Z,9.77
2023-08-04T08:50:27.758Z,11.80
2023-08-04T08:53:03.605Z,13.20
2023-08-04T08:55:32.664Z,9.95
2023-08-04T08:58:02.144Z,9.52
2023-08-04T09:00:30.078Z,10.38
2023-08-04T09:02:58.633Z,9.65
2023-08-04T09:05:29.385Z,10.60
2023-08-04T09:07:56.989Z,13.55
2023-08-04T09:10:24.655Z,8.93
2023-08-04T09:12:53.320Z,10.43
2023-08-04T09:15:20.671Z,8.88
2023-08-04T09:17:47.895Z,10.82
2023-08-04T09:20:29.538Z,9.38
2023-08-04T09:22:57.606Z,10.68
2023-08-04T09:25:26.096Z,11.20
2023-08-04T09:27:53.523Z,8.60
2023-08-04T09:30:20.880Z,9.77
2023-08-04T09:32:51.653Z,9.35
2023-08-04T09:35:19.129Z,15.00
2023-08-04T09:37:46.516Z,9.85
2023-08-04T09:40:21.419Z,11.27
2023-08-04T09:42:49.473Z,7.55
2023-08-04T09:45:20.044Z,8.82
2023-08-04T09:47:49.125Z,9.35
2023-08-04T09:50:21.288Z,6.82
2023-08-04T09:52:48.692Z,10.07
2023-08-04T09:55:16.329Z,11.45
2023-08-04T09:57:44.804Z,8.95
2023-08-04T10:00:15.223Z,10.77
2023-08-04T10:02:43.055Z,9.13
2023-08-04T10:05:12.852Z,10.52
2023-08-04T10:07:42.011Z,9.13
2023-08-04T10:10:09.866Z,12.13
2023-08-04T10:12:38.477Z,9.20
2023-08-04T10:15:06.996Z,6.72
2023-08-04T10:17:34.558Z,9.65
2023-08-04T10:20:05.452Z,7.03
2023-08-04T10:22:34.214Z,12.48
2023-08-04T10:25:02.020Z,9.57
2023-08-04T10:27:30.907Z,8.40
2023-08-04T10:30:09.645Z,7.88
2023-08-04T10:32:38.846Z,11.02
2023-08-04T10:35:26.892Z,7.65
2023-08-04T10:38:00.421Z,7.18
2023-08-04T10:43:10.147Z,9.23
2023-08-04T10:45:54.399Z,7.55
2023-08-04T10:48:23.090Z,5.75
2023-08-04T10:50:51.120Z,7.68
2023-08-04T10:53:19.082Z,6.13
2023-08-04T10:55:55.724Z,7.85
2023-08-04T10:58:25.712Z,8.00
2023-08-04T11:00:54.855Z,4.60
2023-08-04T11:03:30.456Z,7.53
2023-08-04T11:05:58.154Z,4.70
2023-08-04T11:08:26.053Z,7.15
2023-08-04T11:10:59.109Z,6.68
2023-08-04T11:13:26.980Z,8.82
2023-08-04T11:15:54.961Z,6.10
2023-08-04T11:18:28.089Z,8.68
2023-08-04T11:20:55.346Z,5.82
2023-08-04T11:23:30.684Z,5.82
2023-08-04T11:25:59.714Z,7.07
2023-08-04T11:28:27.500Z,5.93
2023-08-04T11:31:07.480Z,6.57
2023-08-04T11:33:35.304Z,5.40
2023-08-04T11:36:05.383Z,7.43
2023-08-04T11:38:33.106Z,5.95
2023-08-04T11:41:02.445Z,8.77
2023-08-04T11:43:34.417Z,8.82
2023-08-04T11:46:07.499Z,10.60
2023-08-04T11:48:40.420Z,8.43
2023-08-04T11:51:09.793Z,10.15
2023-08-04T11:53:45.094Z,6.72
2023-08-04T11:56:29.184Z,8.98
2023-08-04T11:59:10.103Z,9.25
2023-08-04T12:01:40.446Z,6.85
2023-08-04T12:04:23.734Z,7.10
2023-08-04T12:07:06.298Z,8.63
2023-08-04T12:09:34.719Z,9.60
2023-08-04T12:12:04.137Z,6.28
2023-08-04T12:14:33.502Z,7.28
2023-08-04T12:17:04.843Z,7.53
2023-08-04T12:19:33.671Z,9.73
2023-08-04T12:22:05.170Z,7.75
2023-08-04T12:24:33.613Z,12.43
2023-08-04T12:27:00.876Z,6.45
2023-08-04T12:29:28.244Z,5.32
2023-08-04T12:31:55.521Z,5.35
2023-08-04T12:34:23.385Z,6.10
2023-08-04T12:36:51.080Z,7.18
2023-08-04T12:39:18.641Z,7.93
2023-08-04T12:41:46.028Z,4.32
2023-08-04T12:44:13.478Z,6.78
2023-08-04T12:46:40.826Z,9.73
2023-08-04T12:49:08.218Z,7.50
2023-08-04T12:51:35.674Z,15.55
2023-08-04T12:54:02.896Z,6.85
2023-08-04T12:56:30.098Z,11.00
2023-08-04T12:58:57.251Z,4.43
2023-08-04T13:01:24.866Z,7.35
2023-08-04T13:03:53.795Z,16.45
2023-08-04T13:06:21.120Z,6.05
2023-08-04T13:08:48.389Z,10.52
2023-08-04T13:11:15.984Z,5.05
2023-08-04T13:13:43.386Z,13.95
2023-08-04T13:16:11.173Z,7.15
2023-08-04T13:18:38.588Z,7.30
2023-08-04T13:21:06.474Z,11.10
2023-08-04T13:23:33.674Z,6.90
2023-08-04T13:26:05.567Z,5.55
2023-08-04T13:28:33.940Z,11.48
2023-08-04T13:31:05.557Z,5.15
2023-08-04T13:33:33.406Z,12.23
2023-08-04T13:36:00.912Z,9.52
2023-08-04T13:38:28.362Z,6.88
2023-08-04T13:40:56.852Z,11.05
2023-08-04T13:43:27.372Z,6.75
2023-08-04T13:45:54.770Z,9.52
2023-08-04T13:48:21.944Z,7.07
2023-08-04T13:50:49.132Z,12.10
2023-08-04T13:53:16.470Z,8.55
2023-08-04T13:55:43.990Z,6.75
2023-08-04T13:58:11.233Z,10.75
2023-08-04T14:00:38.571Z,10.02
2023-08-04T14:03:05.822Z,6.93
2023-08-04T14:05:33.142Z,7.38
2023-08-04T14:08:04.214Z,9.60
2023-08-04T14:10:31.444Z,9.02
2023-08-04T14:12:58.876Z,6.57
2023-08-04T14:15:27.030Z,6.55
2023-08-04T14:17:54.288Z,5.85
2023-08-04T14:20:21.709Z,8.32
2023-08-04T14:22:49.216Z,5.93
2023-08-04T14:25:16.581Z,7.43
2023-08-04T14:27:43.845Z,8.07
2023-08-04T14:30:11.618Z,11.32
2023-08-04T14:32:39.904Z,9.88
2023-08-04T14:35:07.891Z,9.38
2023-08-04T14:37:35.260Z,6.25
2023-08-04T14:40:02.584Z,7.90
2023-08-04T14:42:31.264Z,7.68
2023-08-04T14:44:58.636Z,6.38
2023-08-04T14:47:26.227Z,12.30
2023-08-04T14:49:53.621Z,11.60
2023-08-04T14:52:20.905Z,13.90
2023-08-04T14:54:50.426Z,20.98
2023-08-04T14:57:17.737Z,14.30
2023-08-04T14:59:45.175Z,12.38
2023-08-04T15:02:12.606Z,10.35
2023-08-04T15:04:40.047Z,8.88
2023-08-04T15:07:07.359Z,12.55
2023-08-04T15:09:34.599Z,11.50
2023-08-04T15:12:01.936Z,12.15
2023-08-04T15:14:29.748Z,10.48
2023-08-04T15:16:57.148Z,10.40
2023-08-04T15:19:24.614Z,12.70
2023-08-04T15:21:51.990Z,9.40
2023-08-04T15:24:19.288Z,9.48
2023-08-04T15:26:47.286Z,12.85
2023-08-04T15:29:14.960Z,8.25
2023-08-04T15:31:42.245Z,7.25
2023-08-04T15:34:09.591Z,8.23
2023-08-04T15:36:36.910Z,7.13
2023-08-04T15:39:04.321Z,8.30
2023-08-04T15:41:31.528Z,12.85
2023-08-04T15:43:58.812Z,13.63
2023-08-04T15:46:26.175Z,7.80
2023-08-04T15:48:53.373Z,8.18
2023-08-04T15:51:20.958Z,6.03
2023-08-04T15:53:49.036Z,9.52
2023-08-04T15:56:16.208Z,10.20
2023-08-04T15:58:43.517Z,9.05
2023-08-04T16:01:10.916Z,7.35
2023-08-04T16:03:38.131Z,7.55
2023-08-04T16:06:05.440Z,7.28
2023-08-04T16:08:33.019Z,6.88
2023-08-04T16:11:01.972Z,10.55
2023-08-04T16:13:29.299Z,8.13
2023-08-04T16:16:08.092Z,10.43
2023-08-04T16:18:38.300Z,9.38
2023-08-04T16:21:07.611Z,6.55
2023-08-04T16:23:36.310Z,7.97
2023-08-04T16:26:03.968Z,8.40
2023-08-04T16:28:32.778Z,12.00
2023-08-04T16:31:00.720Z,10.73
2023-08-04T16:33:28.855Z,10.45
2023-08-04T16:35:56.273Z,12.45
2023-08-04T16:38:24.353Z,11.63
2023-08-04T16:40:56.985Z,9.88
2023-08-04T16:43:25.976Z,7.55
2023-08-04T16:45:54.941Z,11.63
2023-08-04T16:48:22.593Z,13.23
2023-08-04T16:50:49.871Z,12.52
2023-08-04T16:53:21.019Z,7.75
2023-08-04T16:55:53.334Z,10.52
2023-08-04T16:58:21.266Z,7.55
2023-08-04T17:00:48.473Z,11.63
2023-08-04T17:03:15.840Z,11.02
2023-08-04T17:05:43.215Z,9.57
2023-08-04T17:08:10.539Z,12.02
2023-08-04T17:10:41.561Z,9.73
2023-08-04T17:13:08.778Z,7.15
2023-08-04T17:15:39.111Z,8.98
2023-08-04T17:18:12.547Z,10.20
2023-08-04T17:20:40.782Z,7.78
2023-08-04T17:23:08.335Z,12.38
2023-08-04T17:25:35.675Z,10.27
2023-08-04T17:28:03.175Z,10.82
2023-08-04T17:30:30.594Z,10.35
2023-08-04T17:32:58.365Z,12.13
2023-08-04T17:35:25.936Z,9.93
2023-08-04T17:37:53.376Z,8.80
2023-08-04T17:40:20.915Z,11.73
2023-08-04T17:42:48.205Z,13.05
2023-08-04T17:45:15.978Z,8.75
2023-08-04T17:47:43.274Z,9.70
2023-08-04T17:50:10.804Z,10.00
2023-08-04T17:52:38.788Z,11.68
2023-08-04T17:55:06.563Z,14.23
2023-08-04T17:57:36.930Z,12.68
2023-08-04T18:00:08.263Z,10.07
2023-08-04T18:02:44.864Z,10.93
2023-08-04T18:05:12.321Z,9.23
2023-08-04T18:07:39.825Z,12.07
2023-08-04T18:10:07.769Z,9.00
2023-08-04T18:12:35.068Z,10.20
2023-08-04T18:15:02.439Z,17.85
2023-08-04T18:17:32.913Z,12.88
2023-08-04T18:20:00.283Z,13.65
2023-08-04T18:22:27.550Z,10.07
2023-08-04T18:24:56.241Z,12.15
2023-08-04T18:27:23.490Z,12.65
2023-08-04T18:29:50.855Z,9.02
2023-08-04T18:32:18.917Z,12.32
2023-08-04T18:34:46.370Z,10.30
2023-08-04T18:37:14.004Z,14.10
2023-08-04T18:39:41.325Z,17.90
2023-08-04T18:42:09.769Z,19.23
2023-08-04T18:44:38.382Z,14.60
2023-08-04T18:47:05.771Z,9.30
2023-08-04T18:49:38.948Z,10.32
2023-08-04T18:52:06.437Z,11.13
2023-08-04T18:54:34.031Z,11.57
2023-08-04T18:57:01.349Z,17.77
2023-08-04T18:59:28.849Z,17.27
2023-08-04T19:01:59.121Z,12.93
2023-08-04T19:04:28.471Z,14.63
2023-08-04T19:06:56.116Z,12.00
2023-08-04T19:09:23.338Z,20.15
2023-08-04T19:11:50.733Z,16.33
2023-08-04T19:14:22.304Z,16.58
2023-08-04T19:16:50.500Z,15.07
2023-08-04T19:19:18.842Z,14.80
2023-08-04T19:21:46.120Z,26.95
2023-08-04T19:24:16.488Z,20.63
2023-08-04T19:26:44.323Z,19.15
2023-08-04T19:29:34.210Z,24.83
2023-08-04T19:32:04.515Z,16.00
2023-08-04T19:34:32.929Z,16.63
2023-08-04T19:37:00.344Z,17.67
2023-08-04T19:39:27.871Z,18.08
2023-08-04T19:41:55.327Z,13.48
2023-08-04T19:44:22.883Z,20.85
2023-08-04T19:46:50.425Z,18.90
2023-08-04T19:49:17.923Z,22.88
2023-08-04T19:51:45.883Z,15.43
2023-08-04T19:54:13.456Z,14.75
2023-08-04T19:56:40.870Z,17.35
2023-08-04T19:59:08.094Z,14.70
2023-08-04T20:01:35.576Z,14.48
2023-08-04T20:04:02.802Z,14.30
2023-08-04T20:06:30.286Z,13.57
2023-08-04T20:08:57.589Z,19.30
2023-08-04T20:11:24.974Z,31.95
2023-08-04T20:13:52.572Z,16.52
2023-08-04T20:16:22.704Z,13.18
2023-08-04T20:18:51.398Z,17.05
2023-08-04T20:21:22.092Z,13.85
2023-08-04T20:23:49.685Z,14.55
2023-08-04T20:26:17.054Z,18.67
2023-08-04T20:28:46.216Z,18.35
2023-08-04T20:31:17.216Z,16.33
2023-08-04T20:33:44.893Z,13.88
2023-08-04T20:36:15.724Z,16.98
2023-08-04T20:38:43.431Z,12.52
2023-08-04T20:41:12.576Z,16.20
2023-08-04T20:43:41.885Z,14.38
2023-08-04T20:46:10.710Z,19.65
2023-08-04T20:48:38.734Z,14.38
2023-08-04T20:51:09.024Z,15.73
2023-08-04T20:53:39.528Z,14.50
2023-08-04T20:56:08.770Z,17.35
2023-08-04T20:58:38.846Z,13.68
2023-08-04T21:01:12.476Z,11.68
2023-08-04T21:03:42.484Z,12.95
2023-08-04T21:06:09.999Z,12.82
2023-08-04T21:08:37.301Z,10.93
2023-08-04T21:11:05.928Z,14.32
2023-08-04T21:13:33.607Z,14.60
2023-08-04T21:16:01.910Z,9.80
2023-08-04T21:18:29.448Z,9.88
2023-08-04T21:20:58.470Z,11.48
2023-08-04T21:23:26.883Z,12.55
2023-08-04T21:25:54.318Z,14.93
2023-08-04T21:28:22.808Z,9.52
2023-08-04T21:30:54.105Z,10.05
2023-08-04T21:33:24.528Z,18.95
2023-08-04T21:36:00.148Z,10.85
2023-08-04T21:38:28.548Z,9.75
2023-08-04T21:40:59.111Z,13.15
2023-08-04T21:43:29.577Z,12.65
2023-08-04T21:45:58.128Z,14.98
2023-08-04T21:48:25.399Z,12.95
2023-08-04T21:50:52.714Z,15.32
2023-08-04T21:53:20.358Z,10.73
2023-08-04T21:55:53.912Z,11.98
2023-08-04T21:58:21.193Z,11.07
2023-08-04T22:00:48.476Z,11.60
2023-08-04T22:03:15.770Z,12.43
2023-08-04T22:05:45.621Z,11.10
2023-08-04T22:08:12.853Z,9.77
2023-08-04T22:10:40.061Z,11.77
2023-08-04T22:13:07.283Z,10.13
2023-08-04T22:15:34.567Z,10.38
2023-08-04T22:18:01.910Z,11.15
2023-08-04T22:20:29.580Z,11.57
2023-08-04T22:22:57.160Z,14.32
2023-08-04T22:25:24.520Z,10.60
2023-08-04T22:27:51.772Z,13.35
2023-08-04T22:30:18.971Z,17.02
2023-08-04T22:32:47.392Z,13.63
2023-08-04T22:35:14.687Z,10.45
2023-08-04T22:37:42.304Z,13.60
2023-08-04T22:40:11.323Z,12.75
2023-08-04T22:42:38.836Z,12.93
2023-08-04T22:45:06.901Z,15.25
2023-08-04T22:47:34.344Z,12.05
2023-08-04T22:50:01.672Z,11.73
2023-08-04T22:52:30.951Z,9.63
2023-08-04T22:54:58.471Z,11.40
2023-08-04T22:57:25.900Z,12.95
2023-08-04T22:59:57.539Z,10.23
2023-08-04T23:02:25.746Z,12.63
2023-08-04T23:04:53.500Z,13.65
2023-08-04T23:07:25.983Z,10.75
2023-08-04T23:09:56.643Z,10.13
2023-08-04T23:12:24.007Z,13.73
2023-08-04T23:14:54.277Z,11.80
2023-08-04T23:17:24.443Z,12.50
2023-08-04T23:19:51.847Z,10.00
2023-08-04T23:22:19.198Z,14.13
2023-08-04T23:24:49.037Z,12.45
2023-08-04T23:27:16.226Z,13.82
2023-08-04T23:29:44.052Z,13.68
2023-08-04T23:32:11.627Z,12.70
2023-08-04T23:34:38.991Z,13.75
2023-08-04T23:37:09.385Z,10.88
2023-08-04T23:39:38.956Z,11.65
2023-08-04T23:42:06.538Z,13.98
2023-08-04T23:44:33.793Z,13.48
2023-08-04T23:47:01.177Z,9.90
2023-08-04T23:49:28.494Z,13.75
2023-08-04T23:51:55.773Z,13.38
2023-08-04T23:54:23.199Z,12.52
2023-08-04T23:56:51.950Z,11.93
2023-08-04T23:59:22.455Z,11.95
